Terminal Aerodrome Forecast
Issued by NWS Greer, SC

Home | Current Version | Previous Version | Text Only | Print | Product List | Glossary On
Versions: 1 2 3 4 5 6 7 8 9 10 11 12 13 14 15 16 17 18 19 20 21 22 23 24 25 26 27
000
FTUS42 KGSP 280725 AAA
TAFAVL
TAF AMD
KAVL 280725Z 2807/2906 00000KT 1SM BR OVC002
     FM281000 00000KT 1/2SM FG OVC001
     FM281300 17003KT 4SM BR SCT005 BKN015
     FM281600 17009G16KT P6SM BKN035
     FM290000 18005KT P6SM SCT040=

USA.gov is the U.S. government's official web portal to all federal, state and local government web resources and services.